sensor_id;sensor_type;location;lat;lon;timestamp;P1;durP1;ratioP1;P2;durP2;ratioP2
84101;SDS011;74198;51.618;8.334;2024-02-23T00:00:55;0.73;;;0.30;;
84101;SDS011;74198;51.618;8.334;2024-02-23T00:03:21;0.22;;;0.20;;
84101;SDS011;74198;51.618;8.334;2024-02-23T00:05:47;4.18;;;0.35;;
84101;SDS011;74198;51.618;8.334;2024-02-23T00:08:13;2.78;;;0.30;;
84101;SDS011;74198;51.618;8.334;2024-02-23T00:10:39;1.45;;;0.40;;
84101;SDS011;74198;51.618;8.334;2024-02-23T00:13:05;0.50;;;0.20;;
84101;SDS011;74198;51.618;8.334;2024-02-23T00:15:31;0.60;;;0.20;;
84101;SDS011;74198;51.618;8.334;2024-02-23T00:17:57;0.43;;;0.20;;
84101;SDS011;74198;51.618;8.334;2024-02-23T00:20:23;1.85;;;0.30;;
84101;SDS011;74198;51.618;8.334;2024-02-23T00:22:49;3.00;;;0.47;;
84101;SDS011;74198;51.618;8.334;2024-02-23T00:25:15;1.58;;;0.30;;
84101;SDS011;74198;51.618;8.334;2024-02-23T00:27:41;0.25;;;0.10;;
84101;SDS011;74198;51.618;8.334;2024-02-23T00:30:07;0.57;;;0.30;;
84101;SDS011;74198;51.618;8.334;2024-02-23T00:32:33;0.80;;;0.20;;
84101;SDS011;74198;51.618;8.334;2024-02-23T00:34:59;0.22;;;0.20;;
84101;SDS011;74198;51.618;8.334;2024-02-23T00:37:26;0.65;;;0.20;;
84101;SDS011;74198;51.618;8.334;2024-02-23T00:39:52;0.88;;;0.20;;
84101;SDS011;74198;51.618;8.334;2024-02-23T00:42:18;0.47;;;0.20;;
84101;SDS011;74198;51.618;8.334;2024-02-23T00:44:46;0.77;;;0.20;;
84101;SDS011;74198;51.618;8.334;2024-02-23T00:47:12;0.10;;;0.10;;
84101;SDS011;74198;51.618;8.334;2024-02-23T00:49:38;0.82;;;0.20;;
84101;SDS011;74198;51.618;8.334;2024-02-23T00:52:04;0.10;;;0.10;;
84101;SDS011;74198;51.618;8.334;2024-02-23T00:54:30;0.55;;;0.25;;
84101;SDS011;74198;51.618;8.334;2024-02-23T00:56:56;0.43;;;0.20;;
84101;SDS011;74198;51.618;8.334;2024-02-23T00:59:22;0.20;;;0.20;;
84101;SDS011;74198;51.618;8.334;2024-02-23T01:01:48;0.38;;;0.25;;
84101;SDS011;74198;51.618;8.334;2024-02-23T01:04:14;0.47;;;0.28;;
84101;SDS011;74198;51.618;8.334;2024-02-23T01:06:40;0.85;;;0.30;;
84101;SDS011;74198;51.618;8.334;2024-02-23T01:09:06;1.05;;;0.43;;
84101;SDS011;74198;51.618;8.334;2024-02-23T01:11:33;0.60;;;0.47;;
84101;SDS011;74198;51.618;8.334;2024-02-23T01:13:59;1.65;;;0.40;;
84101;SDS011;74198;51.618;8.334;2024-02-23T01:16:25;0.30;;;0.30;;
84101;SDS011;74198;51.618;8.334;2024-02-23T01:18:51;0.70;;;0.40;;
84101;SDS011;74198;51.618;8.334;2024-02-23T01:21:17;0.47;;;0.38;;
84101;SDS011;74198;51.618;8.334;2024-02-23T01:23:43;0.47;;;0.32;;
84101;SDS011;74198;51.618;8.334;2024-02-23T01:26:09;0.77;;;0.35;;
84101;SDS011;74198;51.618;8.334;2024-02-23T01:28:35;1.23;;;0.70;;
84101;SDS011;74198;51.618;8.334;2024-02-23T01:31:01;0.50;;;0.40;;
84101;SDS011;74198;51.618;8.334;2024-02-23T01:33:29;0.63;;;0.40;;
84101;SDS011;74198;51.618;8.334;2024-02-23T01:35:55;1.08;;;0.60;;
84101;SDS011;74198;51.618;8.334;2024-02-23T01:38:23;1.98;;;0.63;;
84101;SDS011;74198;51.618;8.334;2024-02-23T01:40:50;0.63;;;0.40;;
84101;SDS011;74198;51.618;8.334;2024-02-23T01:43:15;0.68;;;0.40;;
84101;SDS011;74198;51.618;8.334;2024-02-23T01:45:41;0.50;;;0.30;;
84101;SDS011;74198;51.618;8.334;2024-02-23T01:48:07;1.05;;;0.38;;
84101;SDS011;74198;51.618;8.334;2024-02-23T01:50:34;1.20;;;0.30;;
84101;SDS011;74198;51.618;8.334;2024-02-23T01:53:00;1.15;;;0.45;;
84101;SDS011;74198;51.618;8.334;2024-02-23T01:55:29;0.60;;;0.47;;
84101;SDS011;74198;51.618;8.334;2024-02-23T01:57:56;0.63;;;0.43;;
84101;SDS011;74198;51.618;8.334;2024-02-23T02:00:22;1.77;;;0.40;;
84101;SDS011;74198;51.618;8.334;2024-02-23T02:02:48;2.38;;;0.63;;
84101;SDS011;74198;51.618;8.334;2024-02-23T02:05:14;0.80;;;0.50;;
84101;SDS011;74198;51.618;8.334;2024-02-23T02:07:40;0.95;;;0.50;;
84101;SDS011;74198;51.618;8.334;2024-02-23T02:10:07;2.05;;;0.75;;
84101;SDS011;74198;51.618;8.334;2024-02-23T02:12:34;0.88;;;0.60;;
84101;SDS011;74198;51.618;8.334;2024-02-23T02:15:00;0.68;;;0.40;;
84101;SDS011;74198;51.618;8.334;2024-02-23T02:17:27;2.28;;;0.35;;
84101;SDS011;74198;51.618;8.334;2024-02-23T02:19:53;1.63;;;0.40;;
84101;SDS011;74198;51.618;8.334;2024-02-23T02:22:19;1.58;;;0.60;;
84101;SDS011;74198;51.618;8.334;2024-02-23T02:24:45;4.97;;;0.68;;
84101;SDS011;74198;51.618;8.334;2024-02-23T02:27:13;1.52;;;0.82;;
84101;SDS011;74198;51.618;8.334;2024-02-23T02:29:39;1.77;;;0.60;;
84101;SDS011;74198;51.618;8.334;2024-02-23T02:32:05;1.70;;;0.50;;
84101;SDS011;74198;51.618;8.334;2024-02-23T02:34:31;0.88;;;0.25;;
84101;SDS011;74198;51.618;8.334;2024-02-23T02:36:57;1.42;;;0.50;;
84101;SDS011;74198;51.618;8.334;2024-02-23T02:39:23;1.00;;;0.40;;
84101;SDS011;74198;51.618;8.334;2024-02-23T02:41:49;1.20;;;0.60;;
84101;SDS011;74198;51.618;8.334;2024-02-23T02:44:15;1.38;;;0.43;;
84101;SDS011;74198;51.618;8.334;2024-02-23T02:46:41;0.70;;;0.40;;
84101;SDS011;74198;51.618;8.334;2024-02-23T02:49:08;2.75;;;0.47;;
84101;SDS011;74198;51.618;8.334;2024-02-23T02:51:34;1.52;;;0.55;;
84101;SDS011;74198;51.618;8.334;2024-02-23T02:54:00;1.52;;;0.65;;
84101;SDS011;74198;51.618;8.334;2024-02-23T02:56:26;0.82;;;0.70;;
84101;SDS011;74198;51.618;8.334;2024-02-23T02:58:52;1.52;;;0.55;;
84101;SDS011;74198;51.618;8.334;2024-02-23T03:01:18;0.82;;;0.47;;
84101;SDS011;74198;51.618;8.334;2024-02-23T03:03:44;0.73;;;0.35;;
84101;SDS011;74198;51.618;8.334;2024-02-23T03:06:10;1.25;;;0.40;;
84101;SDS011;74198;51.618;8.334;2024-02-23T03:08:36;0.68;;;0.30;;
84101;SDS011;74198;51.618;8.334;2024-02-23T03:11:02;1.50;;;0.52;;
84101;SDS011;74198;51.618;8.334;2024-02-23T03:13:28;2.13;;;0.60;;
84101;SDS011;74198;51.618;8.334;2024-02-23T03:15:54;1.35;;;0.45;;
84101;SDS011;74198;51.618;8.334;2024-02-23T03:18:20;1.83;;;0.60;;
84101;SDS011;74198;51.618;8.334;2024-02-23T03:20:46;1.15;;;0.68;;
84101;SDS011;74198;51.618;8.334;2024-02-23T03:23:12;0.77;;;0.30;;
84101;SDS011;74198;51.618;8.334;2024-02-23T03:25:38;0.77;;;0.43;;
84101;SDS011;74198;51.618;8.334;2024-02-23T03:28:04;2.42;;;0.65;;
84101;SDS011;74198;51.618;8.334;2024-02-23T03:30:30;1.63;;;0.65;;
84101;SDS011;74198;51.618;8.334;2024-02-23T03:32:56;2.08;;;0.60;;
84101;SDS011;74198;51.618;8.334;2024-02-23T03:35:22;2.35;;;0.70;;
84101;SDS011;74198;51.618;8.334;2024-02-23T03:37:48;1.13;;;0.43;;
84101;SDS011;74198;51.618;8.334;2024-02-23T03:40:14;5.57;;;0.93;;
84101;SDS011;74198;51.618;8.334;2024-02-23T03:42:43;1.15;;;0.40;;
84101;SDS011;74198;51.618;8.334;2024-02-23T03:45:09;3.20;;;0.70;;
84101;SDS011;74198;51.618;8.334;2024-02-23T03:47:35;1.20;;;0.30;;
84101;SDS011;74198;51.618;8.334;2024-02-23T03:50:01;1.15;;;0.57;;
84101;SDS011;74198;51.618;8.334;2024-02-23T03:52:27;2.35;;;0.63;;
84101;SDS011;74198;51.618;8.334;2024-02-23T03:54:53;1.45;;;0.60;;
84101;SDS011;74198;51.618;8.334;2024-02-23T03:57:19;0.60;;;0.30;;
84101;SDS011;74198;51.618;8.334;2024-02-23T03:59:55;4.78;;;0.80;;
84101;SDS011;74198;51.618;8.334;2024-02-23T04:02:21;1.85;;;0.60;;
84101;SDS011;74198;51.618;8.334;2024-02-23T04:04:47;2.42;;;0.65;;
84101;SDS011;74198;51.618;8.334;2024-02-23T04:07:14;2.80;;;0.60;;
84101;SDS011;74198;51.618;8.334;2024-02-23T04:09:40;3.58;;;0.63;;
84101;SDS011;74198;51.618;8.334;2024-02-23T04:12:06;2.75;;;0.43;;
84101;SDS011;74198;51.618;8.334;2024-02-23T04:14:32;2.13;;;0.55;;
84101;SDS011;74198;51.618;8.334;2024-02-23T04:17:04;2.80;;;0.50;;
84101;SDS011;74198;51.618;8.334;2024-02-23T04:19:30;2.17;;;0.63;;
84101;SDS011;74198;51.618;8.334;2024-02-23T04:21:56;2.33;;;0.60;;
84101;SDS011;74198;51.618;8.334;2024-02-23T04:24:22;3.75;;;0.73;;
84101;SDS011;74198;51.618;8.334;2024-02-23T04:26:48;2.25;;;0.50;;
84101;SDS011;74198;51.618;8.334;2024-02-23T04:29:14;1.77;;;0.55;;
84101;SDS011;74198;51.618;8.334;2024-02-23T04:31:40;3.63;;;0.88;;
84101;SDS011;74198;51.618;8.334;2024-02-23T04:34:06;1.25;;;0.30;;
84101;SDS011;74198;51.618;8.334;2024-02-23T04:36:32;3.65;;;0.60;;
84101;SDS011;74198;51.618;8.334;2024-02-23T04:38:58;1.10;;;0.30;;
84101;SDS011;74198;51.618;8.334;2024-02-23T04:41:24;2.90;;;0.43;;
84101;SDS011;74198;51.618;8.334;2024-02-23T04:43:49;2.42;;;0.30;;
84101;SDS011;74198;51.618;8.334;2024-02-23T04:46:17;2.33;;;0.40;;
84101;SDS011;74198;51.618;8.334;2024-02-23T04:48:43;1.48;;;0.55;;
84101;SDS011;74198;51.618;8.334;2024-02-23T04:51:09;2.88;;;0.38;;
84101;SDS011;74198;51.618;8.334;2024-02-23T04:53:38;7.22;;;0.30;;
84101;SDS011;74198;51.618;8.334;2024-02-23T04:56:04;2.13;;;0.40;;
84101;SDS011;74198;51.618;8.334;2024-02-23T04:58:30;3.30;;;0.60;;
84101;SDS011;74198;51.618;8.334;2024-02-23T05:00:56;1.88;;;0.30;;
84101;SDS011;74198;51.618;8.334;2024-02-23T05:03:22;2.10;;;0.32;;
84101;SDS011;74198;51.618;8.334;2024-02-23T05:05:48;1.00;;;0.15;;
84101;SDS011;74198;51.618;8.334;2024-02-23T05:08:19;1.40;;;0.20;;
84101;SDS011;74198;51.618;8.334;2024-02-23T05:10:45;0.85;;;0.22;;
84101;SDS011;74198;51.618;8.334;2024-02-23T05:13:12;3.25;;;0.70;;
84101;SDS011;74198;51.618;8.334;2024-02-23T05:15:38;0.35;;;0.20;;
84101;SDS011;74198;51.618;8.334;2024-02-23T05:18:04;1.35;;;0.20;;
84101;SDS011;74198;51.618;8.334;2024-02-23T05:20:30;1.83;;;0.30;;
84101;SDS011;74198;51.618;8.334;2024-02-23T05:22:56;0.77;;;0.30;;
84101;SDS011;74198;51.618;8.334;2024-02-23T05:25:22;1.15;;;0.30;;
84101;SDS011;74198;51.618;8.334;2024-02-23T05:27:48;0.00;;;0.00;;
84101;SDS011;74198;51.618;8.334;2024-02-23T05:30:14;0.25;;;0.20;;
84101;SDS011;74198;51.618;8.334;2024-02-23T05:32:40;2.20;;;0.30;;
84101;SDS011;74198;51.618;8.334;2024-02-23T05:35:06;0.00;;;0.00;;
84101;SDS011;74198;51.618;8.334;2024-02-23T05:37:32;0.00;;;0.00;;
84101;SDS011;74198;51.618;8.334;2024-02-23T05:39:58;1.23;;;0.32;;
84101;SDS011;74198;51.618;8.334;2024-02-23T05:42:25;0.17;;;0.10;;
84101;SDS011;74198;51.618;8.334;2024-02-23T05:44:51;2.38;;;0.40;;
84101;SDS011;74198;51.618;8.334;2024-02-23T05:47:17;3.80;;;0.50;;
84101;SDS011;74198;51.618;8.334;2024-02-23T05:49:43;0.00;;;0.00;;
84101;SDS011;74198;51.618;8.334;2024-02-23T05:52:09;0.73;;;0.22;;
84101;SDS011;74198;51.618;8.334;2024-02-23T05:54:35;0.35;;;0.20;;
84101;SDS011;74198;51.618;8.334;2024-02-23T05:57:01;0.20;;;0.08;;
84101;SDS011;74198;51.618;8.334;2024-02-23T05:59:27;1.60;;;0.10;;
84101;SDS011;74198;51.618;8.334;2024-02-23T06:01:53;0.70;;;0.50;;
84101;SDS011;74198;51.618;8.334;2024-02-23T06:04:22;0.50;;;0.13;;
84101;SDS011;74198;51.618;8.334;2024-02-23T06:06:48;0.98;;;0.28;;
84101;SDS011;74198;51.618;8.334;2024-02-23T06:09:14;3.65;;;0.20;;
84101;SDS011;74198;51.618;8.334;2024-02-23T06:11:40;0.57;;;0.20;;
84101;SDS011;74198;51.618;8.334;2024-02-23T06:14:07;0.10;;;0.10;;
84101;SDS011;74198;51.618;8.334;2024-02-23T06:16:33;2.40;;;0.17;;
84101;SDS011;74198;51.618;8.334;2024-02-23T06:18:59;0.20;;;0.10;;
84101;SDS011;74198;51.618;8.334;2024-02-23T06:21:25;0.82;;;0.17;;
84101;SDS011;74198;51.618;8.334;2024-02-23T06:23:52;2.70;;;0.20;;
84101;SDS011;74198;51.618;8.334;2024-02-23T06:26:18;2.47;;;0.32;;
84101;SDS011;74198;51.618;8.334;2024-02-23T06:28:44;3.85;;;0.70;;
84101;SDS011;74198;51.618;8.334;2024-02-23T06:31:10;1.38;;;0.30;;
84101;SDS011;74198;51.618;8.334;2024-02-23T06:33:36;4.85;;;0.22;;
84101;SDS011;74198;51.618;8.334;2024-02-23T06:36:02;1.65;;;0.45;;
84101;SDS011;74198;51.618;8.334;2024-02-23T06:38:29;2.08;;;0.47;;
84101;SDS011;74198;51.618;8.334;2024-02-23T06:40:55;0.43;;;0.10;;
84101;SDS011;74198;51.618;8.334;2024-02-23T06:43:21;0.47;;;0.20;;
84101;SDS011;74198;51.618;8.334;2024-02-23T06:45:47;1.55;;;0.13;;
84101;SDS011;74198;51.618;8.334;2024-02-23T06:48:13;0.47;;;0.10;;
84101;SDS011;74198;51.618;8.334;2024-02-23T06:50:39;1.15;;;0.17;;
84101;SDS011;74198;51.618;8.334;2024-02-23T06:53:05;0.30;;;0.10;;
84101;SDS011;74198;51.618;8.334;2024-02-23T06:55:31;0.20;;;0.20;;
84101;SDS011;74198;51.618;8.334;2024-02-23T06:57:57;0.17;;;0.10;;
84101;SDS011;74198;51.618;8.334;2024-02-23T07:00:23;0.85;;;0.20;;
84101;SDS011;74198;51.618;8.334;2024-02-23T07:02:49;6.53;;;0.52;;
84101;SDS011;74198;51.618;8.334;2024-02-23T07:05:15;2.53;;;0.28;;
84101;SDS011;74198;51.618;8.334;2024-02-23T07:07:41;1.35;;;0.40;;
84101;SDS011;74198;51.618;8.334;2024-02-23T07:10:07;0.68;;;0.20;;
84101;SDS011;74198;51.618;8.334;2024-02-23T07:12:33;1.15;;;0.20;;
84101;SDS011;74198;51.618;8.334;2024-02-23T07:14:59;2.25;;;0.38;;
84101;SDS011;74198;51.618;8.334;2024-02-23T07:17:25;0.10;;;0.10;;
84101;SDS011;74198;51.618;8.334;2024-02-23T07:19:53;2.30;;;0.43;;
84101;SDS011;74198;51.618;8.334;2024-02-23T07:22:19;1.58;;;0.25;;
84101;SDS011;74198;51.618;8.334;2024-02-23T07:24:47;0.90;;;0.47;;
84101;SDS011;74198;51.618;8.334;2024-02-23T07:27:14;1.58;;;0.28;;
84101;SDS011;74198;51.618;8.334;2024-02-23T07:29:40;2.25;;;0.50;;
84101;SDS011;74198;51.618;8.334;2024-02-23T07:32:06;0.95;;;0.30;;
84101;SDS011;74198;51.618;8.334;2024-02-23T07:34:32;1.02;;;0.20;;
84101;SDS011;74198;51.618;8.334;2024-02-23T07:36:58;1.10;;;0.25;;
84101;SDS011;74198;51.618;8.334;2024-02-23T07:39:24;1.83;;;0.28;;
84101;SDS011;74198;51.618;8.334;2024-02-23T07:41:50;0.13;;;0.13;;
84101;SDS011;74198;51.618;8.334;2024-02-23T07:44:16;1.17;;;0.30;;
84101;SDS011;74198;51.618;8.334;2024-02-23T07:46:42;3.72;;;0.57;;
84101;SDS011;74198;51.618;8.334;2024-02-23T07:49:09;1.80;;;0.32;;
84101;SDS011;74198;51.618;8.334;2024-02-23T07:51:35;1.13;;;0.20;;
84101;SDS011;74198;51.618;8.334;2024-02-23T07:54:01;2.08;;;0.30;;
84101;SDS011;74198;51.618;8.334;2024-02-23T07:56:27;2.67;;;0.22;;
84101;SDS011;74198;51.618;8.334;2024-02-23T07:58:54;0.32;;;0.20;;
84101;SDS011;74198;51.618;8.334;2024-02-23T08:01:20;0.20;;;0.17;;
84101;SDS011;74198;51.618;8.334;2024-02-23T08:03:46;1.50;;;0.30;;
84101;SDS011;74198;51.618;8.334;2024-02-23T08:06:12;0.47;;;0.30;;
84101;SDS011;74198;51.618;8.334;2024-02-23T08:08:38;0.32;;;0.15;;
84101;SDS011;74198;51.618;8.334;2024-02-23T08:11:04;1.02;;;0.45;;
84101;SDS011;74198;51.618;8.334;2024-02-23T08:13:30;1.38;;;0.30;;
84101;SDS011;74198;51.618;8.334;2024-02-23T08:15:57;1.50;;;0.30;;
84101;SDS011;74198;51.618;8.334;2024-02-23T08:18:23;3.03;;;0.70;;
84101;SDS011;74198;51.618;8.334;2024-02-23T08:20:49;1.20;;;0.20;;
84101;SDS011;74198;51.618;8.334;2024-02-23T08:23:15;1.35;;;0.30;;
84101;SDS011;74198;51.618;8.334;2024-02-23T08:25:41;0.50;;;0.30;;
84101;SDS011;74198;51.618;8.334;2024-02-23T08:28:07;0.30;;;0.20;;
84101;SDS011;74198;51.618;8.334;2024-02-23T08:30:33;2.30;;;0.10;;
84101;SDS011;74198;51.618;8.334;2024-02-23T08:32:59;0.30;;;0.17;;
84101;SDS011;74198;51.618;8.334;2024-02-23T08:35:25;1.58;;;0.50;;
84101;SDS011;74198;51.618;8.334;2024-02-23T08:37:52;2.70;;;0.38;;
84101;SDS011;74198;51.618;8.334;2024-02-23T08:40:18;0.95;;;0.40;;
84101;SDS011;74198;51.618;8.334;2024-02-23T08:42:43;1.67;;;0.30;;
84101;SDS011;74198;51.618;8.334;2024-02-23T08:45:10;1.33;;;0.30;;
84101;SDS011;74198;51.618;8.334;2024-02-23T08:47:39;1.75;;;0.60;;
84101;SDS011;74198;51.618;8.334;2024-02-23T08:50:05;0.80;;;0.65;;
84101;SDS011;74198;51.618;8.334;2024-02-23T08:52:31;3.30;;;0.43;;
84101;SDS011;74198;51.618;8.334;2024-02-23T08:54:57;1.60;;;0.20;;
84101;SDS011;74198;51.618;8.334;2024-02-23T08:57:25;1.67;;;0.45;;
84101;SDS011;74198;51.618;8.334;2024-02-23T08:59:51;2.70;;;0.40;;
84101;SDS011;74198;51.618;8.334;2024-02-23T09:02:17;0.75;;;0.22;;
84101;SDS011;74198;51.618;8.334;2024-02-23T09:04:44;1.08;;;0.20;;
84101;SDS011;74198;51.618;8.334;2024-02-23T09:07:10;0.63;;;0.10;;
84101;SDS011;74198;51.618;8.334;2024-02-23T09:09:36;1.67;;;0.57;;
84101;SDS011;74198;51.618;8.334;2024-02-23T09:12:02;0.93;;;0.20;;
84101;SDS011;74198;51.618;8.334;2024-02-23T09:14:29;1.20;;;0.10;;
84101;SDS011;74198;51.618;8.334;2024-02-23T09:16:55;0.50;;;0.20;;
84101;SDS011;74198;51.618;8.334;2024-02-23T09:19:21;0.70;;;0.30;;
84101;SDS011;74198;51.618;8.334;2024-02-23T09:21:47;0.32;;;0.20;;
84101;SDS011;74198;51.618;8.334;2024-02-23T09:24:13;0.98;;;0.20;;
84101;SDS011;74198;51.618;8.334;2024-02-23T09:26:39;2.65;;;0.40;;
84101;SDS011;74198;51.618;8.334;2024-02-23T09:29:05;1.98;;;0.50;;
84101;SDS011;74198;51.618;8.334;2024-02-23T09:31:32;1.55;;;0.30;;
84101;SDS011;74198;51.618;8.334;2024-02-23T09:33:58;2.20;;;0.38;;
84101;SDS011;74198;51.618;8.334;2024-02-23T09:36:25;2.50;;;0.55;;
84101;SDS011;74198;51.618;8.334;2024-02-23T09:38:51;1.75;;;0.65;;
84101;SDS011;74198;51.618;8.334;2024-02-23T09:41:21;0.77;;;0.20;;
84101;SDS011;74198;51.618;8.334;2024-02-23T09:43:47;3.05;;;0.47;;
84101;SDS011;74198;51.618;8.334;2024-02-23T09:46:18;2.67;;;0.50;;
84101;SDS011;74198;51.618;8.334;2024-02-23T09:48:44;1.10;;;0.30;;
84101;SDS011;74198;51.618;8.334;2024-02-23T09:51:14;2.38;;;0.63;;
84101;SDS011;74198;51.618;8.334;2024-02-23T09:53:41;1.58;;;0.47;;
84101;SDS011;74198;51.618;8.334;2024-02-23T09:56:08;3.13;;;0.85;;
84101;SDS011;74198;51.618;8.334;2024-02-23T09:58:35;5.15;;;1.17;;
84101;SDS011;74198;51.618;8.334;2024-02-23T10:01:02;2.00;;;0.68;;
84101;SDS011;74198;51.618;8.334;2024-02-23T10:03:29;4.40;;;1.60;;
84101;SDS011;74198;51.618;8.334;2024-02-23T10:05:58;3.05;;;0.90;;
84101;SDS011;74198;51.618;8.334;2024-02-23T10:08:26;5.85;;;1.90;;
84101;SDS011;74198;51.618;8.334;2024-02-23T10:10:52;5.10;;;1.60;;
84101;SDS011;74198;51.618;8.334;2024-02-23T10:13:18;4.07;;;0.98;;
84101;SDS011;74198;51.618;8.334;2024-02-23T10:15:47;5.10;;;1.40;;
84101;SDS011;74198;51.618;8.334;2024-02-23T10:18:13;6.05;;;1.15;;
84101;SDS011;74198;51.618;8.334;2024-02-23T10:20:40;5.22;;;1.17;;
84101;SDS011;74198;51.618;8.334;2024-02-23T10:23:07;1.50;;;0.57;;
84101;SDS011;74198;51.618;8.334;2024-02-23T10:25:33;3.28;;;1.10;;
84101;SDS011;74198;51.618;8.334;2024-02-23T10:28:00;2.22;;;1.05;;
84101;SDS011;74198;51.618;8.334;2024-02-23T10:30:27;3.28;;;1.55;;
84101;SDS011;74198;51.618;8.334;2024-02-23T10:32:54;2.85;;;1.20;;
84101;SDS011;74198;51.618;8.334;2024-02-23T10:35:21;1.92;;;0.98;;
84101;SDS011;74198;51.618;8.334;2024-02-23T10:37:48;2.92;;;0.90;;
84101;SDS011;74198;51.618;8.334;2024-02-23T10:40:18;3.67;;;1.30;;
84101;SDS011;74198;51.618;8.334;2024-02-23T10:42:45;3.95;;;1.58;;
84101;SDS011;74198;51.618;8.334;2024-02-23T10:45:14;3.95;;;1.17;;
84101;SDS011;74198;51.618;8.334;2024-02-23T10:47:40;1.38;;;0.98;;
84101;SDS011;74198;51.618;8.334;2024-02-23T10:50:07;3.38;;;0.93;;
84101;SDS011;74198;51.618;8.334;2024-02-23T10:52:33;2.72;;;0.40;;
84101;SDS011;74198;51.618;8.334;2024-02-23T10:55:00;1.52;;;0.63;;
84101;SDS011;74198;51.618;8.334;2024-02-23T10:57:30;3.50;;;0.63;;
84101;SDS011;74198;51.618;8.334;2024-02-23T10:59:59;2.72;;;0.52;;
84101;SDS011;74198;51.618;8.334;2024-02-23T11:02:25;4.68;;;0.82;;
84101;SDS011;74198;51.618;8.334;2024-02-23T11:04:54;1.60;;;0.65;;
84101;SDS011;74198;51.618;8.334;2024-02-23T11:07:21;1.05;;;0.43;;
84101;SDS011;74198;51.618;8.334;2024-02-23T11:09:53;2.50;;;0.60;;
84101;SDS011;74198;51.618;8.334;2024-02-23T11:12:28;0.77;;;0.20;;
84101;SDS011;74198;51.618;8.334;2024-02-23T11:14:57;1.55;;;0.40;;
84101;SDS011;74198;51.618;8.334;2024-02-23T11:17:28;0.63;;;0.30;;
84101;SDS011;74198;51.618;8.334;2024-02-23T11:19:55;2.90;;;0.30;;
84101;SDS011;74198;51.618;8.334;2024-02-23T11:22:25;2.00;;;0.50;;
84101;SDS011;74198;51.618;8.334;2024-02-23T11:24:51;1.98;;;0.30;;
84101;SDS011;74198;51.618;8.334;2024-02-23T11:27:17;2.50;;;0.60;;
84101;SDS011;74198;51.618;8.334;2024-02-23T11:29:46;0.50;;;0.20;;
84101;SDS011;74198;51.618;8.334;2024-02-23T11:32:16;1.38;;;0.52;;
84101;SDS011;74198;51.618;8.334;2024-02-23T11:34:54;2.50;;;0.60;;
84101;SDS011;74198;51.618;8.334;2024-02-23T11:37:21;1.90;;;0.38;;
84101;SDS011;74198;51.618;8.334;2024-02-23T11:39:47;0.10;;;0.10;;
84101;SDS011;74198;51.618;8.334;2024-02-23T11:42:13;1.25;;;0.25;;
84101;SDS011;74198;51.618;8.334;2024-02-23T11:44:40;1.15;;;0.35;;
84101;SDS011;74198;51.618;8.334;2024-02-23T11:47:06;1.98;;;0.30;;
84101;SDS011;74198;51.618;8.334;2024-02-23T11:49:33;1.75;;;0.30;;
84101;SDS011;74198;51.618;8.334;2024-02-23T11:51:59;2.17;;;0.47;;
84101;SDS011;74198;51.618;8.334;2024-02-23T11:54:25;0.90;;;0.25;;
84101;SDS011;74198;51.618;8.334;2024-02-23T11:56:51;2.28;;;0.52;;
84101;SDS011;74198;51.618;8.334;2024-02-23T11:59:18;2.13;;;0.45;;
84101;SDS011;74198;51.618;8.334;2024-02-23T12:01:45;1.38;;;0.82;;
84101;SDS011;74198;51.618;8.334;2024-02-23T12:04:12;1.42;;;0.22;;
84101;SDS011;74198;51.618;8.334;2024-02-23T12:06:38;0.28;;;0.20;;
84101;SDS011;74198;51.618;8.334;2024-02-23T12:09:04;1.83;;;0.20;;
84101;SDS011;74198;51.618;8.334;2024-02-23T12:11:30;1.48;;;0.30;;
84101;SDS011;74198;51.618;8.334;2024-02-23T12:13:56;1.10;;;0.22;;
84101;SDS011;74198;51.618;8.334;2024-02-23T12:16:22;1.55;;;0.50;;
84101;SDS011;74198;51.618;8.334;2024-02-23T12:18:55;1.67;;;0.17;;
84101;SDS011;74198;51.618;8.334;2024-02-23T12:21:21;0.70;;;0.38;;
84101;SDS011;74198;51.618;8.334;2024-02-23T12:23:49;3.03;;;0.40;;
84101;SDS011;74198;51.618;8.334;2024-02-23T12:26:16;0.52;;;0.15;;
84101;SDS011;74198;51.618;8.334;2024-02-23T12:28:42;2.80;;;0.30;;
84101;SDS011;74198;51.618;8.334;2024-02-23T12:31:09;2.70;;;0.55;;
84101;SDS011;74198;51.618;8.334;2024-02-23T12:33:36;0.10;;;0.10;;
84101;SDS011;74198;51.618;8.334;2024-02-23T12:36:03;4.53;;;0.68;;
84101;SDS011;74198;51.618;8.334;2024-02-23T12:38:29;0.82;;;0.30;;
84101;SDS011;74198;51.618;8.334;2024-02-23T12:40:55;1.02;;;0.20;;
84101;SDS011;74198;51.618;8.334;2024-02-23T12:43:22;0.90;;;0.30;;
84101;SDS011;74198;51.618;8.334;2024-02-23T12:45:53;2.08;;;0.38;;
84101;SDS011;74198;51.618;8.334;2024-02-23T12:48:21;5.47;;;0.32;;
84101;SDS011;74198;51.618;8.334;2024-02-23T12:50:48;3.42;;;0.30;;
84101;SDS011;74198;51.618;8.334;2024-02-23T12:53:30;3.92;;;0.38;;
84101;SDS011;74198;51.618;8.334;2024-02-23T12:55:57;0.20;;;0.08;;
84101;SDS011;74198;51.618;8.334;2024-02-23T12:58:23;2.03;;;0.25;;
84101;SDS011;74198;51.618;8.334;2024-02-23T13:00:49;2.53;;;0.30;;
84101;SDS011;74198;51.618;8.334;2024-02-23T13:03:15;0.73;;;0.30;;
84101;SDS011;74198;51.618;8.334;2024-02-23T13:05:41;1.67;;;0.45;;
84101;SDS011;74198;51.618;8.334;2024-02-23T13:08:07;0.70;;;0.30;;
84101;SDS011;74198;51.618;8.334;2024-02-23T13:10:33;0.60;;;0.08;;
84101;SDS011;74198;51.618;8.334;2024-02-23T13:13:00;0.52;;;0.08;;
84101;SDS011;74198;51.618;8.334;2024-02-23T13:15:26;1.10;;;0.38;;
84101;SDS011;74198;51.618;8.334;2024-02-23T13:17:52;4.30;;;0.20;;
84101;SDS011;74198;51.618;8.334;2024-02-23T13:20:18;0.73;;;0.15;;
84101;SDS011;74198;51.618;8.334;2024-02-23T13:22:44;0.90;;;0.25;;
84101;SDS011;74198;51.618;8.334;2024-02-23T13:25:10;1.90;;;0.52;;
84101;SDS011;74198;51.618;8.334;2024-02-23T13:27:36;3.30;;;0.28;;
84101;SDS011;74198;51.618;8.334;2024-02-23T13:30:03;1.73;;;0.20;;
84101;SDS011;74198;51.618;8.334;2024-02-23T13:32:29;0.20;;;0.08;;
84101;SDS011;74198;51.618;8.334;2024-02-23T13:34:55;1.77;;;0.28;;
84101;SDS011;74198;51.618;8.334;2024-02-23T13:37:21;0.77;;;0.20;;
84101;SDS011;74198;51.618;8.334;2024-02-23T13:39:47;1.63;;;0.50;;
84101;SDS011;74198;51.618;8.334;2024-02-23T13:42:13;0.60;;;0.30;;
84101;SDS011;74198;51.618;8.334;2024-02-23T13:44:39;0.55;;;0.20;;
84101;SDS011;74198;51.618;8.334;2024-02-23T13:47:05;0.82;;;0.30;;
84101;SDS011;74198;51.618;8.334;2024-02-23T13:49:32;1.00;;;0.30;;
84101;SDS011;74198;51.618;8.334;2024-02-23T13:51:58;1.73;;;0.40;;
84101;SDS011;74198;51.618;8.334;2024-02-23T13:54:24;1.25;;;0.30;;
84101;SDS011;74198;51.618;8.334;2024-02-23T13:56:50;0.73;;;0.35;;
84101;SDS011;74198;51.618;8.334;2024-02-23T13:59:16;1.42;;;0.52;;
84101;SDS011;74198;51.618;8.334;2024-02-23T14:01:42;3.20;;;0.50;;
84101;SDS011;74198;51.618;8.334;2024-02-23T14:04:08;2.15;;;0.30;;
84101;SDS011;74198;51.618;8.334;2024-02-23T14:06:34;1.42;;;0.20;;
84101;SDS011;74198;51.618;8.334;2024-02-23T14:09:00;2.75;;;0.40;;
84101;SDS011;74198;51.618;8.334;2024-02-23T14:11:28;1.65;;;0.03;;
84101;SDS011;74198;51.618;8.334;2024-02-23T14:13:54;0.10;;;0.00;;
84101;SDS011;74198;51.618;8.334;2024-02-23T14:16:20;1.75;;;0.20;;
84101;SDS011;74198;51.618;8.334;2024-02-23T14:18:46;0.85;;;0.20;;
84101;SDS011;74198;51.618;8.334;2024-02-23T14:21:12;0.75;;;0.30;;
84101;SDS011;74198;51.618;8.334;2024-02-23T14:23:39;8.57;;;0.20;;
84101;SDS011;74198;51.618;8.334;2024-02-23T14:26:05;1.27;;;0.30;;
84101;SDS011;74198;51.618;8.334;2024-02-23T14:28:32;0.75;;;0.30;;
84101;SDS011;74198;51.618;8.334;2024-02-23T14:30:58;1.08;;;0.28;;
84101;SDS011;74198;51.618;8.334;2024-02-23T14:33:24;0.88;;;0.20;;
84101;SDS011;74198;51.618;8.334;2024-02-23T14:35:50;1.00;;;0.30;;
84101;SDS011;74198;51.618;8.334;2024-02-23T14:38:16;0.32;;;0.10;;
84101;SDS011;74198;51.618;8.334;2024-02-23T14:40:42;1.55;;;0.20;;
84101;SDS011;74198;51.618;8.334;2024-02-23T14:43:08;0.68;;;0.32;;